createdAt,value
2019-05-11T00:00:12.221Z,99296.70
2019-05-11T00:02:38.912Z,99292.02
2019-05-11T00:05:05.911Z,99285.83
2019-05-11T00:07:32.804Z,99286.91
2019-05-11T00:09:59.599Z,99289.34
2019-05-11T00:12:26.373Z,99278.36
2019-05-11T00:14:53.048Z,99264.48
2019-05-11T00:17:19.866Z,99263.72
2019-05-11T00:19:46.549Z,99267.17
2019-05-11T00:22:13.330Z,99260.63
2019-05-11T00:24:40.214Z,99255.95
2019-05-11T00:29:38.880Z,99259.86
2019-05-11T00:32:05.671Z,99251.52
2019-05-11T00:34:32.476Z,99242.59
2019-05-11T00:36:59.044Z,99242.36
2019-05-11T00:39:25.769Z,99237.66
2019-05-11T00:41:52.359Z,99234.64
2019-05-11T00:44:19.145Z,99228.52
2019-05-11T00:46:46.018Z,99229.10
2019-05-11T00:49:12.872Z,99225.00
2019-05-11T00:51:39.655Z,99227.45
2019-05-11T00:54:06.460Z,99234.78
2019-05-11T00:56:33.335Z,99235.84
2019-05-11T00:59:00.126Z,99237.36
2019-05-11T01:01:26.933Z,99240.67
2019-05-11T01:03:53.727Z,99244.82
2019-05-11T01:06:20.524Z,99235.41
2019-05-11T01:08:47.270Z,99224.20
2019-05-11T01:11:14.036Z,99224.30
2019-05-11T01:13:40.795Z,99240.77
2019-05-11T01:16:07.473Z,99236.36
2019-05-11T01:18:34.184Z,99230.17
2019-05-11T01:21:00.857Z,99233.84
2019-05-11T01:23:27.819Z,99236.44
2019-05-11T01:25:54.585Z,99224.00
2019-05-11T01:28:21.294Z,99225.72
2019-05-11T01:30:48.056Z,99219.75
2019-05-11T01:33:14.870Z,99220.39
2019-05-11T01:35:41.630Z,99223.34
2019-05-11T01:38:08.395Z,99213.95
2019-05-11T01:40:35.104Z,99215.84
2019-05-11T01:43:01.887Z,99206.94
2019-05-11T01:45:28.567Z,99211.32
2019-05-11T01:47:55.291Z,99206.88
2019-05-11T01:50:21.983Z,99211.67
2019-05-11T01:52:48.646Z,99210.78
2019-05-11T01:55:15.336Z,99207.40
2019-05-11T01:57:41.994Z,99207.23
2019-05-11T02:00:08.978Z,99207.23
2019-05-11T02:02:35.655Z,99204.48
2019-05-11T02:05:20.468Z,99208.56
2019-05-11T02:07:48.775Z,99210.25
2019-05-11T02:10:15.550Z,99205.71
2019-05-11T02:12:42.154Z,99202.06
2019-05-11T02:15:08.851Z,99203.26
2019-05-11T02:17:35.559Z,99200.21
2019-05-11T02:20:02.349Z,99203.86
2019-05-11T02:22:29.156Z,99203.42
2019-05-11T02:24:55.845Z,99208.66
2019-05-11T02:27:22.676Z,99206.50
2019-05-11T02:29:49.610Z,99205.41
2019-05-11T02:32:16.280Z,99210.89
2019-05-11T02:34:42.966Z,99205.70
2019-05-11T02:37:09.713Z,99202.95
2019-05-11T02:39:36.283Z,99200.91
2019-05-11T02:42:03.147Z,99198.52
2019-05-11T02:44:29.966Z,99204.28
2019-05-11T02:46:56.694Z,99198.78
2019-05-11T02:49:27.760Z,99203.26
2019-05-11T02:51:52.244Z,99201.41
2019-05-11T02:54:19.130Z,99203.69
2019-05-11T02:56:45.797Z,99199.28
2019-05-11T02:59:12.477Z,99196.43
2019-05-11T03:01:39.159Z,99207.20
2019-05-11T03:04:05.935Z,99197.00
2019-05-11T03:06:32.702Z,99194.23
2019-05-11T03:08:59.391Z,99199.05
2019-05-11T03:11:25.977Z,99191.98
2019-05-11T03:13:52.624Z,99190.73
2019-05-11T03:16:19.300Z,99184.20
2019-05-11T03:18:46.073Z,99186.39
2019-05-11T03:21:12.650Z,99181.22
2019-05-11T03:23:39.214Z,99175.45
2019-05-11T03:26:06.286Z,99176.38
2019-05-11T03:28:33.142Z,99172.48
2019-05-11T03:31:02.123Z,99180.66
2019-05-11T03:33:29.117Z,99165.81
2019-05-11T03:35:55.894Z,99169.69
2019-05-11T03:38:22.454Z,99170.02
2019-05-11T03:40:49.436Z,99167.27
2019-05-11T03:43:16.100Z,99150.44
2019-05-11T03:45:43.089Z,99174.69
2019-05-11T03:48:10.141Z,99178.94
2019-05-11T03:50:36.988Z,99180.42
2019-05-11T03:53:03.854Z,99182.67
2019-05-11T03:55:30.636Z,99176.55
2019-05-11T03:57:57.222Z,99181.72
2019-05-11T04:00:23.985Z,99175.58
2019-05-11T04:02:50.599Z,99170.78
2019-05-11T04:05:17.384Z,99169.84
2019-05-11T04:07:44.195Z,99175.81
2019-05-11T04:10:10.890Z,99172.86
2019-05-11T04:12:37.642Z,99173.84
2019-05-11T04:15:04.905Z,99179.70
2019-05-11T04:17:31.575Z,99180.27
2019-05-11T04:19:58.260Z,99188.72
2019-05-11T04:22:24.955Z,99193.86
2019-05-11T04:24:51.948Z,99189.30
2019-05-11T04:27:19.611Z,99195.16
2019-05-11T04:29:46.736Z,99197.38
2019-05-11T04:32:13.422Z,99201.63
2019-05-11T04:34:40.143Z,99209.80
2019-05-11T04:37:06.825Z,99207.45
2019-05-11T04:39:33.631Z,99209.95
2019-05-11T04:42:00.234Z,99215.81
2019-05-11T04:44:26.912Z,99216.59
2019-05-11T04:46:53.599Z,99213.95
2019-05-11T04:49:20.285Z,99219.88
2019-05-11T04:51:47.068Z,99217.45
2019-05-11T04:54:13.738Z,99219.22
2019-05-11T04:56:40.467Z,99220.73
2019-05-11T04:59:07.196Z,99216.91
2019-05-11T05:01:35.457Z,99219.80
2019-05-11T05:04:13.294Z,99218.14
2019-05-11T05:06:30.997Z,99224.44
2019-05-11T05:08:58.265Z,99218.99
2019-05-11T05:11:30.608Z,99218.77
2019-05-11T05:13:54.638Z,99211.73
2019-05-11T05:16:21.331Z,99220.45
2019-05-11T05:18:47.999Z,99212.74
2019-05-11T05:21:14.783Z,99216.70
2019-05-11T05:23:41.554Z,99212.04
2019-05-11T05:26:08.167Z,99207.18
2019-05-11T05:28:34.927Z,99211.64
2019-05-11T05:31:01.716Z,99201.77
2019-05-11T05:33:28.394Z,99208.94
2019-05-11T05:35:55.077Z,99200.47
2019-05-11T05:38:21.654Z,99201.39
2019-05-11T05:40:48.368Z,99205.77
2019-05-11T05:43:26.020Z,99203.69
2019-05-11T05:45:43.527Z,99198.63
2019-05-11T05:48:10.224Z,99198.95
2019-05-11T05:50:36.908Z,99202.34
2019-05-11T05:53:03.740Z,99198.70
2019-05-11T05:55:30.346Z,99196.98
2019-05-11T05:57:57.199Z,99203.11
2019-05-11T06:00:23.980Z,99194.67
2019-05-11T06:02:50.813Z,99203.30
2019-05-11T06:05:19.784Z,99194.09
2019-05-11T06:07:47.272Z,99191.56
2019-05-11T06:10:14.189Z,99195.31
2019-05-11T06:12:40.890Z,99186.59
2019-05-11T06:15:08.367Z,99184.16
2019-05-11T06:17:34.966Z,99190.48
2019-05-11T06:20:02.392Z,99192.31
2019-05-11T06:22:30.889Z,99199.16
2019-05-11T06:24:57.461Z,99196.77
2019-05-11T06:27:24.148Z,99197.86
2019-05-11T06:29:50.844Z,99195.92
2019-05-11T06:32:17.527Z,99203.39
2019-05-11T06:34:44.309Z,99201.17
2019-05-11T06:37:10.987Z,99198.50
2019-05-11T06:39:37.664Z,99205.75
2019-05-11T06:42:04.474Z,99211.98
2019-05-11T06:44:31.150Z,99212.47
2019-05-11T06:46:58.211Z,99216.39
2019-05-11T06:49:24.889Z,99213.86
2019-05-11T06:51:51.480Z,99218.08
2019-05-11T06:54:18.258Z,99230.22
2019-05-11T06:56:44.855Z,99227.81
2019-05-11T06:59:11.854Z,99225.34
2019-05-11T07:01:38.577Z,99227.91
2019-05-11T07:04:05.345Z,99230.58
2019-05-11T07:06:33.123Z,99229.55
2019-05-11T07:08:59.684Z,99226.52
2019-05-11T07:11:26.337Z,99227.36
2019-05-11T07:13:52.978Z,99223.41
2019-05-11T07:16:19.734Z,99213.61
2019-05-11T07:18:46.444Z,99215.22
2019-05-11T07:21:13.110Z,99210.65
2019-05-11T07:23:39.790Z,99213.95
2019-05-11T07:26:06.579Z,99223.49
2019-05-11T07:28:33.279Z,99228.41
2019-05-11T07:31:00.008Z,99237.72
2019-05-11T07:33:28.709Z,99234.92
2019-05-11T07:35:55.269Z,99239.81
2019-05-11T07:38:21.982Z,99234.30
2019-05-11T07:40:48.774Z,99234.96
2019-05-11T07:43:15.589Z,99236.39
2019-05-11T07:45:42.253Z,99242.75
2019-05-11T07:48:08.866Z,99245.11
2019-05-11T07:50:35.432Z,99248.73
2019-05-11T07:53:02.235Z,99250.83
2019-05-11T07:55:28.799Z,99250.52
2019-05-11T07:57:55.604Z,99245.16
2019-05-11T08:00:22.367Z,99251.19
2019-05-11T08:02:49.156Z,99254.37
2019-05-11T08:05:17.998Z,99252.13
2019-05-11T08:07:48.144Z,99251.97
2019-05-11T08:10:18.563Z,99246.05
2019-05-11T08:12:45.301Z,99247.48
2019-05-11T08:15:13.801Z,99252.66
2019-05-11T08:17:40.765Z,99257.00
2019-05-11T08:20:08.536Z,99251.72
2019-05-11T08:22:55.058Z,99251.47
2019-05-11T08:25:21.731Z,99254.02
2019-05-11T08:27:48.711Z,99256.33
2019-05-11T08:30:15.985Z,99255.41
2019-05-11T08:32:44.177Z,99261.53
2019-05-11T08:35:11.290Z,99263.82
2019-05-11T08:37:38.773Z,99259.59
2019-05-11T08:40:28.836Z,99257.72
2019-05-11T08:43:17.814Z,99257.23
2019-05-11T08:45:44.130Z,99263.13
2019-05-11T08:48:10.922Z,99268.50
2019-05-11T08:50:38.251Z,99269.59
2019-05-11T08:53:08.438Z,99268.80
2019-05-11T08:55:34.997Z,99261.53
2019-05-11T08:58:01.689Z,99271.69
2019-05-11T09:00:28.595Z,99272.27
2019-05-11T09:02:58.035Z,99265.53
2019-05-11T09:05:24.042Z,99270.33
2019-05-11T09:07:51.061Z,99270.39
2019-05-11T09:10:18.635Z,99271.27
2019-05-11T09:12:45.644Z,99273.06
2019-05-11T09:15:12.602Z,99271.85
2019-05-11T09:17:39.162Z,99278.55
2019-05-11T09:20:08.720Z,99280.38
2019-05-11T09:22:35.236Z,99293.67
2019-05-11T09:25:02.045Z,99293.20
2019-05-11T09:27:28.815Z,99297.12
2019-05-11T09:29:55.514Z,99291.38
2019-05-11T09:32:22.310Z,99291.08
2019-05-11T09:34:48.879Z,99300.80
2019-05-11T09:37:18.384Z,99300.00
2019-05-11T09:39:47.728Z,99304.31
2019-05-11T09:42:13.766Z,99311.53
2019-05-11T09:44:40.460Z,99314.28
2019-05-11T09:47:08.312Z,99308.41
2019-05-11T09:49:47.163Z,99314.14
2019-05-11T09:52:03.982Z,99311.38
2019-05-11T09:54:30.762Z,99313.64
2019-05-11T09:56:57.987Z,99313.88
2019-05-11T09:59:28.015Z,99322.32
2019-05-11T10:01:55.887Z,99328.56
2019-05-11T10:04:28.808Z,99319.40
2019-05-11T10:06:58.379Z,99320.07
2019-05-11T10:09:24.885Z,99319.00
2019-05-11T10:11:51.818Z,99322.84
2019-05-11T10:14:18.886Z,99327.77
2019-05-11T10:16:45.612Z,99334.38
2019-05-11T10:19:12.394Z,99328.22
2019-05-11T10:21:39.091Z,99336.15
2019-05-11T10:24:08.323Z,99335.03
2019-05-11T10:26:34.522Z,99344.51
2019-05-11T10:29:01.283Z,99348.41
2019-05-11T10:31:31.116Z,99345.35
2019-05-11T10:33:58.112Z,99356.70
2019-05-11T10:36:24.978Z,99354.46
2019-05-11T10:38:51.787Z,99361.09
2019-05-11T10:41:18.597Z,99361.55
2019-05-11T10:43:45.372Z,99334.30
2019-05-11T10:46:19.607Z,99367.30
2019-05-11T10:48:40.525Z,99373.84
2019-05-11T10:51:08.241Z,99378.36
2019-05-11T10:53:35.353Z,99382.78
2019-05-11T10:56:02.141Z,99384.67
2019-05-11T10:58:28.836Z,99388.50
2019-05-11T11:00:58.073Z,99393.16
2019-05-11T11:03:24.385Z,99387.30
2019-05-11T11:05:51.112Z,99394.02
2019-05-11T11:08:18.516Z,99401.31
2019-05-11T11:10:45.642Z,99403.20
2019-05-11T11:13:12.412Z,99400.36
2019-05-11T11:15:39.247Z,99415.06
2019-05-11T11:18:08.394Z,99419.38
2019-05-11T11:20:34.592Z,99425.28
2019-05-11T11:23:01.310Z,99424.36
2019-05-11T11:25:28.498Z,99437.80
2019-05-11T11:27:57.708Z,99441.21
2019-05-11T11:30:24.193Z,99443.90
2019-05-11T11:32:50.860Z,99447.66
2019-05-11T11:35:18.766Z,99451.07
2019-05-11T11:37:47.727Z,99452.97
2019-05-11T11:40:14.470Z,99457.38
2019-05-11T11:42:41.413Z,99454.45
2019-05-11T11:45:08.792Z,99462.03
2019-05-11T11:47:35.580Z,99472.06
2019-05-11T11:50:02.427Z,99471.69
2019-05-11T11:52:28.983Z,99475.55
2019-05-11T11:54:55.773Z,99477.72
2019-05-11T11:57:22.566Z,99473.63
2019-05-11T11:59:49.367Z,99484.81
2019-05-11T12:02:16.052Z,99484.81
2019-05-11T12:04:42.794Z,99484.42
2019-05-11T12:07:09.474Z,99495.78
2019-05-11T12:09:37.774Z,99489.28
2019-05-11T12:12:04.708Z,99498.22
2019-05-11T12:14:31.291Z,99494.17
2019-05-11T12:17:07.482Z,99508.31
2019-05-11T12:19:27.875Z,99509.27
2019-05-11T12:21:54.917Z,99517.39
2019-05-11T12:24:21.782Z,99518.19
2019-05-11T12:26:48.710Z,99512.01
2019-05-11T12:29:15.395Z,99521.22
2019-05-11T12:31:42.184Z,99519.19
2019-05-11T12:34:08.957Z,99522.38
2019-05-11T12:36:35.611Z,99526.14
2019-05-11T12:39:04.425Z,99528.14
2019-05-11T12:41:31.325Z,99527.44
2019-05-11T12:43:58.089Z,99535.19
2019-05-11T12:46:24.864Z,99541.03
2019-05-11T12:48:51.625Z,99543.20
2019-05-11T12:51:18.763Z,99543.36
2019-05-11T12:53:47.549Z,99543.18
2019-05-11T12:56:14.087Z,99543.12
2019-05-11T12:58:40.623Z,99550.91
2019-05-11T13:01:08.976Z,99550.84
2019-05-11T13:03:38.401Z,99556.85
2019-05-11T13:06:04.598Z,99559.80
2019-05-11T13:08:31.416Z,99567.73
2019-05-11T13:10:58.512Z,99574.23
2019-05-11T13:13:25.409Z,99570.45
2019-05-11T13:15:52.079Z,99578.22
2019-05-11T13:18:18.779Z,99575.83
2019-05-11T13:20:45.420Z,99580.91
2019-05-11T13:23:12.112Z,99580.95
2019-05-11T13:25:39.034Z,99594.63
2019-05-11T13:28:05.866Z,99593.96
2019-05-11T13:30:32.525Z,99604.33
2019-05-11T13:32:59.202Z,99604.98
2019-05-11T13:35:28.303Z,99603.38
2019-05-11T13:37:54.453Z,99604.81
2019-05-11T13:40:21.140Z,99599.45
2019-05-11T13:42:48.983Z,99597.37
2019-05-11T13:45:17.739Z,99604.08
2019-05-11T13:47:52.688Z,99608.98
2019-05-11T13:50:13.621Z,99603.70
2019-05-11T13:52:40.402Z,99604.25
2019-05-11T13:55:07.860Z,99608.22
2019-05-11T13:57:37.803Z,99608.67
2019-05-11T14:02:54.638Z,99613.05
2019-05-11T14:05:21.487Z,99625.83
2019-05-11T14:07:48.394Z,99626.08
2019-05-11T14:10:15.325Z,99621.71
2019-05-11T14:12:42.513Z,99634.22
2019-05-11T14:15:09.162Z,99631.91
2019-05-11T14:17:37.861Z,99637.94
2019-05-11T14:20:04.814Z,99641.43
2019-05-11T14:22:31.497Z,99643.20
2019-05-11T14:24:58.734Z,99649.59
2019-05-11T14:27:25.334Z,99652.76
2019-05-11T14:29:52.003Z,99658.08
2019-05-11T14:32:18.762Z,99659.34
2019-05-11T14:34:45.341Z,99660.33
2019-05-11T14:37:12.142Z,99658.87
2019-05-11T14:39:38.721Z,99663.70
2019-05-11T14:42:07.534Z,99664.95
2019-05-11T14:44:34.017Z,99672.72
2019-05-11T14:47:00.570Z,99675.72
2019-05-11T14:49:27.702Z,99680.17
2019-05-11T14:52:14.167Z,99689.17
2019-05-11T14:54:41.550Z,99684.85
2019-05-11T14:57:08.331Z,99699.19
2019-05-11T14:59:35.098Z,99706.55
2019-05-11T15:02:11.532Z,99713.10
2019-05-11T15:04:38.271Z,99711.34
2019-05-11T15:07:04.932Z,99715.79
2019-05-11T15:09:31.664Z,99718.72
2019-05-11T15:11:58.329Z,99722.53
2019-05-11T15:14:25.014Z,99723.16
2019-05-11T15:16:51.675Z,99725.77
2019-05-11T15:19:18.635Z,99731.41
2019-05-11T15:21:47.621Z,99738.30
2019-05-11T15:24:14.266Z,99732.47
2019-05-11T15:26:40.930Z,99737.21
2019-05-11T15:29:08.297Z,99746.38
2019-05-11T15:31:35.177Z,99744.92
2019-05-11T15:34:01.875Z,99747.23
2019-05-11T15:36:28.829Z,99752.30
2019-05-11T15:38:55.403Z,99753.46
2019-05-11T15:41:21.974Z,99748.45
2019-05-11T15:43:48.751Z,99759.03
2019-05-11T15:46:19.561Z,99750.53
2019-05-11T15:48:58.478Z,99750.55
2019-05-11T15:51:13.328Z,99760.35
2019-05-11T15:53:39.900Z,99766.48
2019-05-11T15:56:08.560Z,99772.42
2019-05-11T15:58:35.173Z,99775.08
2019-05-11T16:01:01.994Z,99778.27
2019-05-11T16:03:28.665Z,99782.41
2019-05-11T16:05:55.332Z,99787.30
2019-05-11T16:08:21.905Z,99786.99
2019-05-11T16:10:49.010Z,99793.16
2019-05-11T16:13:17.903Z,99791.67
2019-05-11T16:15:44.514Z,99794.27
2019-05-11T16:18:11.161Z,99799.68
2019-05-11T16:20:37.839Z,99809.52
2019-05-11T16:23:04.512Z,99814.64
2019-05-11T16:25:31.333Z,99818.05
2019-05-11T16:27:57.978Z,99816.52
2019-05-11T16:30:25.054Z,99820.31
2019-05-11T16:32:51.615Z,99823.66
2019-05-11T16:35:18.528Z,99827.91
2019-05-11T16:37:45.308Z,99828.63
2019-05-11T16:40:12.344Z,99831.33
2019-05-11T16:42:39.126Z,99834.29
2019-05-11T16:45:08.513Z,99829.50
2019-05-11T16:47:35.188Z,99828.55
2019-05-11T16:50:01.955Z,99831.95
2019-05-11T16:52:28.833Z,99829.18
2019-05-11T16:54:55.397Z,99841.06
2019-05-11T16:57:22.176Z,99849.80
2019-05-11T16:59:48.852Z,99846.17
2019-05-11T17:02:15.637Z,99849.77
2019-05-11T17:04:42.259Z,99850.59
2019-05-11T17:07:08.986Z,99862.77
2019-05-11T17:09:37.806Z,99848.61
2019-05-11T17:12:04.931Z,99850.05
2019-05-11T17:14:31.619Z,99859.37
2019-05-11T17:16:58.651Z,99866.44
2019-05-11T17:19:41.851Z,99873.16
2019-05-11T17:21:54.370Z,99879.11
2019-05-11T17:24:20.954Z,99883.98
2019-05-11T17:26:47.977Z,99885.67
2019-05-11T17:29:14.687Z,99897.27
2019-05-11T17:31:41.574Z,99905.47
2019-05-11T17:34:09.036Z,99920.27
2019-05-11T17:36:36.227Z,99914.37
2019-05-11T17:39:06.358Z,99920.23
2019-05-11T17:41:32.946Z,99921.47
2019-05-11T17:43:59.512Z,99921.91
2019-05-11T17:46:27.832Z,99923.42
2019-05-11T17:48:54.725Z,99921.72
2019-05-11T17:51:24.877Z,99919.27
2019-05-11T17:53:49.989Z,99919.59
2019-05-11T17:56:16.556Z,99927.50
2019-05-11T17:58:43.143Z,99939.02
2019-05-11T18:01:10.225Z,99947.67
2019-05-11T18:03:38.457Z,99984.39
2019-05-11T18:06:05.400Z,99963.28
2019-05-11T18:08:31.969Z,99968.42
2019-05-11T18:10:59.151Z,99968.70
2019-05-11T18:13:28.124Z,99975.77
2019-05-11T18:15:54.524Z,99981.82
2019-05-11T18:18:24.028Z,99986.83
2019-05-11T18:20:50.003Z,99999.16
2019-05-11T18:23:17.584Z,100003.20
2019-05-11T18:25:44.465Z,100007.41
2019-05-11T18:28:14.146Z,100018.97
2019-05-11T18:30:39.886Z,100023.02
2019-05-11T18:33:08.295Z,100025.67
2019-05-11T18:35:35.520Z,100028.19
2019-05-11T18:38:02.296Z,100029.66
2019-05-11T18:40:29.006Z,100036.22
2019-05-11T18:42:57.867Z,100040.27
2019-05-11T18:45:24.735Z,100037.63
2019-05-11T18:47:51.300Z,100046.21
2019-05-11T18:50:29.984Z,100043.39
2019-05-11T18:52:49.025Z,100054.91
2019-05-11T18:55:15.615Z,100066.73
2019-05-11T18:57:42.693Z,100073.03
2019-05-11T19:00:09.565Z,100079.16
2019-05-11T19:02:38.410Z,100080.57
2019-05-11T19:05:05.693Z,100070.78
2019-05-11T19:07:32.567Z,100082.71
2019-05-11T19:09:59.710Z,100084.83
2019-05-11T19:12:27.890Z,100097.32
2019-05-11T19:14:54.743Z,100098.03
2019-05-11T19:17:23.640Z,100104.89
2019-05-11T19:19:50.351Z,100108.61
2019-05-11T19:22:18.313Z,100117.18
2019-05-11T19:24:47.581Z,100118.15
2019-05-11T19:27:14.500Z,100127.25
2019-05-11T19:29:41.420Z,100130.88
2019-05-11T19:32:11.144Z,100132.25
2019-05-11T19:34:38.810Z,100144.82
2019-05-11T19:37:05.713Z,100144.12
2019-05-11T19:39:32.435Z,100150.46
2019-05-11T19:41:59.041Z,100148.87
2019-05-11T19:44:27.833Z,100164.56
2019-05-11T19:46:54.212Z,100161.72
2019-05-11T19:49:20.895Z,100180.25
2019-05-11T19:51:48.660Z,100181.77
2019-05-11T19:54:15.524Z,100189.61
2019-05-11T19:56:42.109Z,100198.67
2019-05-11T19:59:08.971Z,100205.59
2019-05-11T20:01:35.742Z,100211.73
2019-05-11T20:04:02.423Z,100205.81
2019-05-11T20:06:29.059Z,100218.70
2019-05-11T20:08:57.702Z,100219.45
2019-05-11T20:11:24.310Z,100227.44
2019-05-11T20:13:50.869Z,100233.95
2019-05-11T20:16:18.737Z,100234.41
2019-05-11T20:18:45.633Z,100233.45
2019-05-11T20:21:19.253Z,100236.92
2019-05-11T20:23:41.037Z,100237.94
2019-05-11T20:26:08.878Z,100251.19
2019-05-11T20:28:37.781Z,100251.23
2019-05-11T20:31:04.399Z,100258.00
2019-05-11T20:33:31.195Z,100258.67
2019-05-11T20:35:58.229Z,100268.08
2019-05-11T20:38:25.030Z,100270.14
2019-05-11T20:40:51.604Z,100282.36
2019-05-11T20:43:18.729Z,100279.53
2019-05-11T20:45:45.395Z,100281.09
2019-05-11T20:48:12.073Z,100281.00
2019-05-11T20:50:38.637Z,100282.11
2019-05-11T20:53:05.404Z,100280.36
2019-05-11T20:55:32.162Z,100285.15
2019-05-11T20:57:58.866Z,100290.14
2019-05-11T21:00:27.781Z,100296.59
2019-05-11T21:02:54.335Z,100296.62
2019-05-11T21:05:21.023Z,100298.75
2019-05-11T21:07:47.683Z,100308.24
2019-05-11T21:10:14.439Z,100301.13
2019-05-11T21:12:41.167Z,100314.00
2019-05-11T21:15:08.670Z,100321.89
2019-05-11T21:17:35.369Z,100318.48
2019-05-11T21:20:02.291Z,100327.36
2019-05-11T21:22:29.090Z,100328.10
2019-05-11T21:24:58.078Z,100327.92
2019-05-11T21:27:24.140Z,100333.73
2019-05-11T21:29:50.716Z,100327.66
2019-05-11T21:32:17.999Z,100337.09
2019-05-11T21:34:44.871Z,100341.72
2019-05-11T21:37:11.575Z,100353.34
2019-05-11T21:39:38.283Z,100357.38
2019-05-11T21:42:07.585Z,100359.06
2019-05-11T21:44:34.070Z,100366.41
2019-05-11T21:47:00.830Z,100359.80
2019-05-11T21:49:27.472Z,100369.55
2019-05-11T21:52:04.233Z,100378.42
2019-05-11T21:54:22.828Z,100384.39
2019-05-11T21:56:49.512Z,100387.99
2019-05-11T21:59:18.262Z,100430.37
2019-05-11T22:01:45.126Z,100389.45
2019-05-11T22:04:11.932Z,100399.95
2019-05-11T22:06:39.202Z,100408.62
2019-05-11T22:09:08.233Z,100406.11
2019-05-11T22:11:35.042Z,100412.02
2019-05-11T22:14:01.936Z,100412.63
2019-05-11T22:16:30.251Z,100409.41
2019-05-11T22:18:57.968Z,100422.39
2019-05-11T22:21:24.898Z,100440.33
2019-05-11T22:23:51.775Z,100414.97
2019-05-11T22:26:18.559Z,100422.67
2019-05-11T22:28:47.632Z,100430.86
2019-05-11T22:31:14.105Z,100437.09
2019-05-11T22:33:40.791Z,100449.52
2019-05-11T22:36:07.475Z,100448.20
2019-05-11T22:38:34.049Z,100453.36
2019-05-11T22:41:00.942Z,100459.83
2019-05-11T22:43:28.545Z,100464.08
2019-05-11T22:45:57.935Z,100467.20
2019-05-11T22:48:24.304Z,100470.77
2019-05-11T22:50:51.543Z,100477.50
2019-05-11T22:53:18.834Z,100483.81
2019-05-11T22:55:45.642Z,100486.78
2019-05-11T22:58:12.342Z,100487.81
2019-05-11T23:00:41.479Z,100494.16
2019-05-11T23:03:10.976Z,100505.55
2019-05-11T23:05:38.295Z,100507.76
2019-05-11T23:08:07.531Z,100509.62
2019-05-11T23:10:34.101Z,100509.84
2019-05-11T23:13:01.355Z,100519.22
2019-05-11T23:15:28.326Z,100514.95
2019-05-11T23:17:55.147Z,100524.10
2019-05-11T23:20:21.842Z,100516.38
2019-05-11T23:22:57.814Z,100518.64
2019-05-11T23:25:18.482Z,100524.95
2019-05-11T23:27:45.404Z,100527.93
2019-05-11T23:30:13.164Z,100540.37
2019-05-11T23:32:39.923Z,100533.17
2019-05-11T23:35:08.391Z,100536.00
2019-05-11T23:37:35.395Z,100532.50
2019-05-11T23:40:02.170Z,100524.64
2019-05-11T23:42:30.832Z,100534.02
2019-05-11T23:44:58.653Z,100540.73
2019-05-11T23:47:25.478Z,100544.91
2019-05-11T23:49:52.163Z,100549.25
2019-05-11T23:52:18.848Z,100548.63
2019-05-11T23:54:45.434Z,100544.91
2019-05-11T23:57:12.113Z,100550.09
2019-05-11T23:59:38.804Z,100545.86
